Hugo, OK

7:06 PM CDT on September 16, 2014 (GMT -0500)
Stamper Municipal | Change Station
CLOSE
Current Station
Airport
Location: Hugo,
Elevation: 571 ft
Nearby Weather Stations
4.0 Earthquake: Guthrie, Oklahoma (1 day ago)  

Elev 571 ft 34.03 °N, 95.54 °W | Updated 11 minutes ago

Clear
Clear
83 °F
Feels Like 87 °F
N
0
Wind Variable Wind from North

Today
High -- | Low -- °F
--% Chance of Precip.
Yesterday
High -- | Low -- °F
Precip. -- in
7:06 AM 7:27 PM
Last Quarter, 41% visible
Pressure 29.99 in
Visibility 10.0 miles
Clouds Clear
Heat Index 87 °F
Dew Point 70 °F
Humidity 64%
Rainfall 0.00 in
Snow Depth Not available.
UV 0 out of 12
Pollen 10.30 out of 12
Air Quality Not available.
Flu Activity Not available.
METAR KHHW 162355Z AUTO 00000KT 10SM CLR 29/21 A2999 RMK AO2 T02850210 10315 20285 PWINO

More Conditions Fewer Conditions

Pressure 29.99 in
Visibility 10.0 miles
Clouds Clear
Heat Index 87 °F
Dew Point 70 °F
Humidity 64%
Rainfall 0.00 in
Snow Depth Not available.
UV 0 out of 12
Pollen 10.30 out of 12
Air Quality Not available.
Flu Activity Not available.
METAR KHHW 162355Z AUTO 00000KT 10SM CLR 29/21 A2999 RMK AO2 T02850210 10315 20285 PWINO

More Conditions Fewer Conditions

Nowcast | as of 6:00 PM CDT on September 16, 2014

At 6:00 PM...National Weather Service Doppler radars detected a few showers ongoing across southern Franklin County in Arkansas. All thunderstorm activity has moved out of the area. These showers were moving off to the southeast at around 25 mph. Through 7:15 PM...passing showers will be possible for locations across southern Franklin County...generally along and south of a Mulberry to Ozark line. Light showers will be common...resulting in average hourly rainfall of up to one tenth of an inch. Isolated locally heavier downpours may produce up to one quarter inch.

×

10-Day Weather Forecast

Almanac

Astronomy

Sep. 16, 2014 Rise Set
Actual Time 7:06 AM CDT 7:27 PM CDT
Civil Twilight 6:40 AM CDT 7:52 PM CDT
Nautical Twilight 6:11 AM CDT 8:21 PM CDT
Astronomical Twilight 5:41 AM CDT 8:51 PM CDT
Moon 12:28 AM CDT (9/16) 2:40 PM CDT (9/16)
Length of Visible Light 13h 11m
Length of Day
12h 21m
Tomorrow will be 2m 5s shorter.
Last Quarter, 41% of the Moon is Illuminated
Today
Last Quarter
Sep 24
New
Oct 1
First Quarter
Oct 8
Full
Oct 15
Last Quarter

Today's Extremes

State Highs State Lows

Community

WunderPhotos

Upload Photos

1,753,919 photos uploaded!

Nearby

Snow Depth

Station Depth Elevation
No new snow has been reported.

Earthquake Activity

City Distance Mag. Time & Date
Guthrie, Oklahoma 165 miles 2.7 4:00 PM CDT
2014-09-15
Guthrie, Oklahoma 165 miles 2.6 3:29 PM CDT
2014-09-15
Guthrie, Oklahoma 165 miles 3.2 3:14 PM CDT
2014-09-15
Guthrie, Oklahoma 165 miles 4.0 3:08 PM CDT
2014-09-15
Minimum magnitude displayed is 2.5.

Coastal Water Temperatures

Place Temperature
No Stations Reporting

Nearby Weather Stations